Time;durP1;ratioP1;P1;durP2;ratioP2;P2;SDS_P1;SDS_P2;PMS_P1;PMS_P2;Temp;Humidity;BMP_temperature;BMP_pressure;BME280_temperature;BME280_humidity;BME280_pressure;Samples;Min_cycle;Max_cycle;Signal;HPM_P1;HPM_P2
2023/12/10 00:00:42;;;;;;;105.30;87.00;;;;;;;-2.45;100.00;97012.39;109577;1282;23070;-74
2023/12/10 00:03:30;;;;;;;96.40;80.80;;;;;;;-2.46;100.00;97002.05;109569;1274;22240;-75
2023/12/10 00:05:58;;;;;;;107.20;84.60;;;;;;;-2.42;100.00;97002.45;109465;1277;22239;-74
2023/12/10 00:08:40;;;;;;;111.40;87.80;;;;;;;-2.39;100.00;97003.32;109570;1278;22309;-75
2023/12/10 00:11:08;;;;;;;108.20;87.40;;;;;;;-2.37;100.00;97002.97;109595;1279;22241;-74
2023/12/10 00:13:36;;;;;;;113.80;92.70;;;;;;;-2.37;100.00;96990.16;109562;1280;22888;-74
2023/12/10 00:16:04;;;;;;;117.50;93.00;;;;;;;-2.36;100.00;96988.36;109605;1277;22899;-74
2023/12/10 00:18:32;;;;;;;105.00;84.50;;;;;;;-2.41;100.00;96981.70;109579;1283;22860;-75
2023/12/10 00:21:01;;;;;;;91.00;79.70;;;;;;;-2.47;100.00;96973.67;109604;1278;22201;-75
2023/12/10 00:23:29;;;;;;;91.10;81.10;;;;;;;-2.49;100.00;96974.12;109479;1277;22254;-73
2023/12/10 00:25:56;;;;;;;89.00;79.50;;;;;;;-2.49;100.00;96977.90;109580;1282;22878;-75
2023/12/10 00:28:25;;;;;;;102.90;86.80;;;;;;;-2.51;100.00;96974.73;109573;1282;22204;-74
2023/12/10 00:30:53;;;;;;;89.60;80.00;;;;;;;-2.51;100.00;96974.86;109587;1282;22961;-75
2023/12/10 00:33:21;;;;;;;89.90;80.90;;;;;;;-2.56;100.00;96969.20;109580;1282;22355;-74
2023/12/10 00:35:49;;;;;;;95.60;85.10;;;;;;;-2.56;100.00;96972.79;109590;1274;22378;-74
2023/12/10 00:38:17;;;;;;;79.90;72.10;;;;;;;-2.59;100.00;96967.66;109469;1286;22963;-74
2023/12/10 00:40:48;;;;;;;79.60;71.40;;;;;;;-2.57;100.00;96966.48;109561;1282;22941;-74
2023/12/10 00:43:16;;;;;;;77.00;69.50;;;;;;;-2.56;100.00;96960.96;109527;1283;22214;-74
2023/12/10 00:45:45;;;;;;;73.60;66.50;;;;;;;-2.54;100.00;96961.85;109461;1286;22215;-75
2023/12/10 00:48:13;;;;;;;70.50;63.70;;;;;;;-2.49;100.00;96964.46;109567;1276;22226;-74
2023/12/10 00:50:41;;;;;;;74.40;67.50;;;;;;;-2.48;100.00;96964.21;109593;1277;23379;-75
2023/12/10 00:53:09;;;;;;;82.90;74.60;;;;;;;-2.52;100.00;96961.14;109556;1282;23121;-74
2023/12/10 00:55:37;;;;;;;78.30;70.50;;;;;;;-2.59;100.00;96962.88;109551;1283;22344;-74
2023/12/10 00:58:06;;;;;;;73.80;66.70;;;;;;;-2.69;100.00;96965.65;109603;1290;22357;-75
2023/12/10 01:00:34;;;;;;;86.80;78.80;;;;;;;-2.73;100.00;96958.71;109577;1286;22269;-75
2023/12/10 01:03:04;;;;;;;72.00;65.30;;;;;;;-2.75;100.00;96958.15;109565;1283;22127;-76
2023/12/10 01:05:32;;;;;;;69.30;62.70;;;;;;;-2.73;100.00;96959.41;109421;1286;22226;-76
2023/12/10 01:08:00;;;;;;;76.50;68.40;;;;;;;-2.70;100.00;96954.49;109457;1282;22934;-75
2023/12/10 01:10:29;;;;;;;66.70;60.50;;;;;;;-2.69;100.00;96953.67;109558;1283;22223;-75
2023/12/10 01:12:57;;;;;;;68.20;61.90;;;;;;;-2.65;100.00;96949.45;109543;1283;22318;-74
2023/12/10 01:15:31;;;;;;;66.60;60.40;;;;;;;-2.65;100.00;96946.09;109538;1283;22972;-75
2023/12/10 01:18:00;;;;;;;;;;;;;;;-2.65;100.00;96944.46;109478;1289;160292;-75
2023/12/10 01:20:30;;;;;;;70.10;63.50;;;;;;;-2.73;100.00;96945.48;109554;1283;22230;-74
2023/12/10 01:22:59;;;;;;;80.30;72.40;;;;;;;-2.85;100.00;96951.13;109432;1287;22225;-75
2023/12/10 01:25:27;;;;;;;76.90;69.10;;;;;;;-2.95;100.00;96953.80;109575;1277;22248;-75
2023/12/10 01:27:55;;;;;;;71.60;64.70;;;;;;;-2.98;100.00;96951.30;109460;1279;22860;-74
2023/12/10 01:30:24;;;;;;;65.50;59.10;;;;;;;-2.98;100.00;96952.67;109588;1290;22216;-75
2023/12/10 01:32:54;;;;;;;70.00;63.30;;;;;;;-2.98;100.00;96947.89;109599;1283;22238;-75
2023/12/10 01:35:23;;;;;;;65.00;58.90;;;;;;;-3.02;100.00;96946.52;109559;1283;23005;-75
2023/12/10 01:37:52;;;;;;;66.30;60.20;;;;;;;-3.02;100.00;96934.84;109594;1283;23522;-75
2023/12/10 01:40:21;;;;;;;60.20;54.50;;;;;;;-3.02;100.00;96925.77;109389;1286;22883;-76
2023/12/10 01:42:49;;;;;;;58.00;52.70;;;;;;;-3.03;100.00;96921.85;109589;1277;22379;-74
2023/12/10 01:45:18;;;;;;;54.30;49.10;;;;;;;-3.08;100.00;96919.07;109593;1280;22254;-74
2023/12/10 01:47:51;;;;;;;49.10;44.20;;;;;;;-3.07;100.00;96916.45;109566;1283;22298;-74
2023/12/10 01:50:21;;;;;;;45.60;40.80;;;;;;;-3.03;100.00;96909.84;109575;1283;23307;-74
2023/12/10 01:52:49;;;;;;;42.80;38.70;;;;;;;-2.97;100.00;96901.77;109592;1276;22329;-74
2023/12/10 01:55:18;;;;;;;42.50;38.40;;;;;;;-2.86;100.00;96898.44;109587;1290;22281;-75
2023/12/10 01:57:46;;;;;;;43.80;39.80;;;;;;;-2.73;100.00;96895.28;109581;1290;23111;-74
2023/12/10 02:00:14;;;;;;;46.20;41.70;;;;;;;-2.65;100.00;96898.01;109567;1274;23062;-75
2023/12/10 02:02:44;;;;;;;44.10;39.80;;;;;;;-2.56;100.00;96894.50;109574;1290;22368;-76
2023/12/10 02:05:12;;;;;;;42.50;38.30;;;;;;;-2.47;100.00;96888.63;109577;1277;22300;-76
2023/12/10 02:07:43;;;;;;;42.30;38.40;;;;;;;-2.38;100.00;96881.30;109563;1286;23022;-75
2023/12/10 02:10:12;;;;;;;42.70;38.70;;;;;;;-2.29;100.00;96870.06;109525;1283;22154;-76
2023/12/10 02:12:41;;;;;;;45.60;41.50;;;;;;;-2.22;100.00;96866.73;109554;1290;22353;-76
2023/12/10 02:15:17;;;;;;;44.50;40.40;;;;;;;-2.21;100.00;96860.79;109578;1280;22196;-75
2023/12/10 02:17:46;;;;;;;43.40;39.10;;;;;;;-2.22;100.00;96854.65;109593;1290;22222;-75
2023/12/10 02:20:16;;;;;;;41.80;37.80;;;;;;;-2.15;100.00;96859.98;109562;1284;22941;-75
2023/12/10 02:23:01;;;;;;;42.50;38.50;;;;;;;-2.09;100.00;96863.02;109551;1290;22378;-75
2023/12/10 02:25:32;;;;;;;43.40;39.20;;;;;;;-2.00;100.00;96856.18;109569;1274;22224;-75
2023/12/10 02:28:01;;;;;;;43.70;39.70;;;;;;;-1.95;100.00;96850.80;109576;1270;22246;-76
2023/12/10 02:30:30;;;;;;;41.10;37.30;;;;;;;-1.93;100.00;96844.98;109571;1290;22290;-74
2023/12/10 02:32:58;;;;;;;38.90;35.20;;;;;;;-1.93;100.00;96840.23;109576;1287;22372;-74
2023/12/10 02:35:27;;;;;;;43.30;39.00;;;;;;;-1.89;100.00;96847.55;109589;1290;22263;-75
2023/12/10 02:37:55;;;;;;;42.40;38.60;;;;;;;-1.86;100.00;96857.91;109573;1286;22177;-76
2023/12/10 02:40:23;;;;;;;41.20;37.20;;;;;;;-1.83;100.00;96855.55;109507;1290;22233;-75
2023/12/10 02:42:51;;;;;;;45.80;41.50;;;;;;;-1.82;100.00;96855.98;109566;1290;22893;-75
2023/12/10 02:45:19;;;;;;;44.10;40.20;;;;;;;-1.80;100.00;96854.52;109580;1284;22218;-74
2023/12/10 02:47:48;;;;;;;49.80;45.20;;;;;;;-1.80;100.00;96852.72;109570;1286;22240;-74
2023/12/10 02:50:16;;;;;;;47.70;43.30;;;;;;;-1.82;100.00;96854.24;109576;1290;23045;-75
2023/12/10 02:52:44;;;;;;;44.90;40.90;;;;;;;-1.85;100.00;96855.58;109559;1290;22210;-75
2023/12/10 02:55:12;;;;;;;43.90;39.70;;;;;;;-1.81;100.00;96856.85;109532;1290;22212;-75
2023/12/10 02:57:40;;;;;;;46.30;42.00;;;;;;;-1.78;100.00;96849.55;109572;1290;22204;-75
2023/12/10 03:00:09;;;;;;;44.90;40.70;;;;;;;-1.77;100.00;96847.34;109571;1290;22891;-75
2023/12/10 03:02:37;;;;;;;46.40;42.20;;;;;;;-1.79;100.00;96850.63;109556;1290;22210;-76
2023/12/10 03:05:05;;;;;;;49.80;45.20;;;;;;;-1.83;100.00;96843.36;109479;1288;22301;-75
2023/12/10 03:07:33;;;;;;;49.80;45.20;;;;;;;-1.89;100.00;96851.30;109570;1279;22245;-75
2023/12/10 03:10:02;;;;;;;48.30;43.70;;;;;;;-1.93;100.00;96858.33;109492;1276;22218;-75
2023/12/10 03:12:30;;;;;;;45.20;41.00;;;;;;;-1.93;100.00;96855.70;109558;1274;22894;-75
2023/12/10 03:14:58;;;;;;;44.90;40.70;;;;;;;-1.94;100.00;96850.45;109573;1286;22109;-75
2023/12/10 03:17:26;;;;;;;44.90;40.60;;;;;;;-1.97;100.00;96844.70;109585;1290;22403;-75
2023/12/10 03:19:54;;;;;;;46.60;42.20;;;;;;;-1.97;100.00;96837.25;109555;1279;22231;-75
2023/12/10 03:22:22;;;;;;;46.00;41.80;;;;;;;-2.02;100.00;96830.12;109565;1284;23102;-75
2023/12/10 03:24:50;;;;;;;47.50;43.10;;;;;;;-2.05;100.00;96833.29;109571;1282;22231;-75
2023/12/10 03:27:18;;;;;;;44.50;40.40;;;;;;;-2.10;100.00;96835.93;109527;1283;22984;-75
2023/12/10 03:29:46;;;;;;;42.50;38.50;;;;;;;-2.13;100.00;96839.53;109578;1290;22949;-75
2023/12/10 03:32:15;;;;;;;45.70;41.40;;;;;;;-2.12;100.00;96841.02;109579;1284;22148;-75
2023/12/10 03:34:43;;;;;;;42.20;38.20;;;;;;;-2.10;100.00;96846.38;109563;1290;23058;-75
2023/12/10 03:37:11;;;;;;;46.00;41.60;;;;;;;-2.10;100.00;96847.75;109564;1279;22236;-75
2023/12/10 03:39:39;;;;;;;45.40;41.20;;;;;;;-2.11;100.00;96849.59;109573;1284;22283;-75
2023/12/10 03:42:07;;;;;;;47.90;43.50;;;;;;;-2.12;100.00;96847.52;109547;1283;22523;-76
2023/12/10 03:44:35;;;;;;;47.20;42.90;;;;;;;-2.14;100.00;96849.27;109565;1286;22224;-76
2023/12/10 03:47:03;;;;;;;46.00;41.60;;;;;;;-2.15;100.00;96852.38;109584;1290;22222;-75
2023/12/10 03:49:31;;;;;;;44.30;40.20;;;;;;;-2.13;100.00;96851.25;109506;1290;22158;-75
2023/12/10 03:51:59;;;;;;;44.70;40.40;;;;;;;-2.12;100.00;96856.86;109555;1283;22250;-74
2023/12/10 03:54:27;;;;;;;43.50;39.50;;;;;;;-2.14;100.00;96867.06;109470;1290;22228;-75
2023/12/10 03:56:55;;;;;;;47.40;43.20;;;;;;;-2.14;100.00;96859.66;109576;1280;22212;-76
2023/12/10 03:59:23;;;;;;;47.40;43.00;;;;;;;-2.15;100.00;96862.87;109583;1283;22227;-76
2023/12/10 04:01:51;;;;;;;50.80;46.20;;;;;;;-2.16;100.00;96865.39;109556;1286;22217;-75
2023/12/10 04:04:19;;;;;;;54.00;48.70;;;;;;;-2.19;100.00;96860.40;109594;1284;22237;-74
2023/12/10 04:06:48;;;;;;;48.70;44.20;;;;;;;-2.18;100.00;96862.89;109582;1290;22163;-75
2023/12/10 04:09:16;;;;;;;46.00;41.60;;;;;;;-2.13;100.00;96855.16;109601;1290;22680;-75
2023/12/10 04:11:44;;;;;;;44.70;40.60;;;;;;;-2.04;100.00;96856.27;109585;1290;22244;-74
2023/12/10 04:14:12;;;;;;;45.00;40.80;;;;;;;-1.97;100.00;96857.16;109573;1284;22908;-75
2023/12/10 04:16:41;;;;;;;45.70;41.50;;;;;;;-1.95;100.00;96849.02;109557;1290;22206;-76
2023/12/10 04:19:09;;;;;;;49.90;45.40;;;;;;;-1.95;100.00;96849.71;109586;1283;22348;-75
2023/12/10 04:21:37;;;;;;;51.60;46.50;;;;;;;-1.97;100.00;96853.27;109565;1290;22207;-75
2023/12/10 04:24:06;;;;;;;58.70;53.00;;;;;;;-2.03;100.00;96860.84;109558;1283;22340;-75
2023/12/10 04:26:34;;;;;;;57.20;51.50;;;;;;;-2.11;100.00;96862.20;109517;1290;22204;-75
2023/12/10 04:29:02;;;;;;;54.50;49.00;;;;;;;-2.18;100.00;96866.75;109574;1280;22353;-76
2023/12/10 04:31:30;;;;;;;55.70;50.40;;;;;;;-2.23;100.00;96865.98;109565;1290;22993;-74
2023/12/10 04:34:00;;;;;;;53.90;48.40;;;;;;;-2.22;100.00;96869.54;109568;1290;23001;-75
2023/12/10 04:36:28;;;;;;;53.10;47.90;;;;;;;-2.18;100.00;96873.98;109547;1290;22283;-75
2023/12/10 04:38:56;;;;;;;54.50;49.40;;;;;;;-2.19;100.00;96870.44;109581;1290;22211;-75
2023/12/10 04:41:24;;;;;;;59.20;53.80;;;;;;;-2.17;100.00;96869.61;109569;1290;22215;-76
2023/12/10 04:43:52;;;;;;;55.60;50.40;;;;;;;-2.20;100.00;96866.14;109560;1290;22840;-76
2023/12/10 04:46:20;;;;;;;57.80;52.40;;;;;;;-2.21;100.00;96868.45;109569;1290;22236;-76
2023/12/10 04:48:48;;;;;;;61.20;55.10;;;;;;;-2.20;100.00;96869.09;109555;1290;22204;-75
2023/12/10 04:51:17;;;;;;;72.60;65.00;;;;;;;-2.17;100.00;96867.66;109594;1287;22222;-75
2023/12/10 04:53:45;;;;;;;83.70;74.00;;;;;;;-2.14;100.00;96871.88;109530;1279;22878;-76
2023/12/10 04:56:13;;;;;;;97.40;76.50;;;;;;;-2.13;100.00;96874.16;109580;1290;22228;-76
2023/12/10 04:58:41;;;;;;;102.80;81.80;;;;;;;-2.13;100.00;96878.96;109570;1290;22232;-76
2023/12/10 05:01:09;;;;;;;91.70;73.20;;;;;;;-2.12;100.00;96876.88;109562;1287;22199;-76
2023/12/10 05:03:37;;;;;;;71.30;63.90;;;;;;;-2.11;100.00;96879.31;109575;1282;22107;-76
2023/12/10 05:06:05;;;;;;;58.90;53.00;;;;;;;-2.09;100.00;96881.66;109574;1290;22206;-75
2023/12/10 05:08:34;;;;;;;51.80;46.90;;;;;;;-2.08;100.00;96882.00;109523;1284;22198;-75
2023/12/10 05:11:03;;;;;;;56.30;51.00;;;;;;;-2.01;100.00;96883.84;109584;1287;22199;-74
2023/12/10 05:13:31;;;;;;;60.10;54.40;;;;;;;-1.95;100.00;96886.34;109564;1283;22207;-74
2023/12/10 05:15:59;;;;;;;59.20;53.70;;;;;;;-1.91;100.00;96884.86;109562;1290;22845;-74
2023/12/10 05:18:28;;;;;;;61.70;56.20;;;;;;;-1.93;100.00;96886.46;109489;1289;23446;-74
2023/12/10 05:20:56;;;;;;;61.20;54.90;;;;;;;-1.94;100.00;96885.09;109554;1290;22231;-75
2023/12/10 05:23:24;;;;;;;50.50;45.90;;;;;;;-1.96;100.00;96886.86;109570;1286;22210;-75
2023/12/10 05:25:52;;;;;;;47.90;43.50;;;;;;;-2.03;100.00;96889.14;109568;1290;22218;-75
2023/12/10 05:28:20;;;;;;;46.90;42.60;;;;;;;-2.03;100.00;96894.31;109569;1286;22227;-76
2023/12/10 05:30:48;;;;;;;45.10;40.90;;;;;;;-2.01;100.00;96906.16;109521;1290;22225;-75
2023/12/10 05:33:16;;;;;;;45.60;41.40;;;;;;;-1.96;100.00;96901.27;109494;1291;22215;-75
2023/12/10 05:35:45;;;;;;;45.00;41.00;;;;;;;-1.89;100.00;96906.80;109563;1290;22191;-75
2023/12/10 05:38:13;;;;;;;48.00;43.50;;;;;;;-1.85;100.00;96909.61;109582;1290;22247;-75
2023/12/10 05:40:41;;;;;;;44.80;40.70;;;;;;;-1.87;100.00;96917.92;109573;1290;22886;-75
2023/12/10 05:43:09;;;;;;;42.70;39.00;;;;;;;-1.88;100.00;96918.02;109585;1286;22324;-76
2023/12/10 05:45:37;;;;;;;43.50;39.40;;;;;;;-1.89;100.00;96917.47;109524;1280;22228;-76
2023/12/10 05:48:05;;;;;;;41.10;37.20;;;;;;;-1.86;100.00;96921.41;109593;1290;22248;-76
2023/12/10 05:50:33;;;;;;;40.30;36.70;;;;;;;-1.85;100.00;96924.45;109590;1290;23027;-75
2023/12/10 05:53:03;;;;;;;40.20;36.30;;;;;;;-1.79;100.00;96927.59;109566;1287;22276;-76
2023/12/10 05:55:31;;;;;;;41.70;37.90;;;;;;;-1.72;100.00;96923.61;109569;1287;23064;-76
2023/12/10 05:57:59;;;;;;;46.20;42.00;;;;;;;-1.67;100.00;96922.41;109577;1290;22228;-75
2023/12/10 06:00:27;;;;;;;43.10;39.30;;;;;;;-1.63;100.00;96923.69;109557;1286;22188;-75
2023/12/10 06:02:55;;;;;;;45.10;41.10;;;;;;;-1.61;100.00;96925.31;109596;1290;22363;-75
2023/12/10 06:05:23;;;;;;;47.90;43.60;;;;;;;-1.63;100.00;96920.15;109577;1287;22836;-75
2023/12/10 06:07:51;;;;;;;42.80;38.90;;;;;;;-1.64;100.00;96917.86;109589;1290;22932;-75
2023/12/10 06:10:20;;;;;;;43.40;39.50;;;;;;;-1.63;100.00;96930.13;109598;1286;22208;-75
2023/12/10 06:12:50;;;;;;;50.20;45.70;;;;;;;-1.61;100.00;96937.04;109578;1287;23115;-75
2023/12/10 06:15:18;;;;;;;46.20;42.00;;;;;;;-1.55;100.00;96942.14;109573;1290;22956;-75
2023/12/10 06:17:46;;;;;;;47.40;43.00;;;;;;;-1.49;100.00;96947.53;109594;1280;22213;-75
2023/12/10 06:20:14;;;;;;;51.00;46.40;;;;;;;-1.46;100.00;96951.32;109573;1290;22201;-74
2023/12/10 06:22:42;;;;;;;53.90;48.90;;;;;;;-1.43;100.00;96950.64;109598;1286;23014;-74
2023/12/10 06:25:10;;;;;;;55.40;50.00;;;;;;;-1.39;100.00;96960.04;109634;1290;22926;-74
2023/12/10 06:27:43;;;;;;;52.40;47.20;;;;;;;-1.41;100.00;96965.72;109592;1290;22790;-76
2023/12/10 06:30:12;;;;;;;53.90;48.40;;;;;;;-1.40;100.00;96970.70;109603;1290;22980;-76
2023/12/10 06:32:41;;;;;;;54.40;48.80;;;;;;;-1.41;100.00;96982.42;109611;1290;22203;-75
2023/12/10 06:35:09;;;;;;;65.40;55.40;;;;;;;-1.39;100.00;96981.39;109583;1290;22114;-75
2023/12/10 06:37:38;;;;;;;79.10;63.90;;;;;;;-1.41;100.00;96982.89;109565;1287;23038;-75
2023/12/10 06:40:07;;;;;;;84.90;65.80;;;;;;;-1.44;100.00;96987.13;109566;1284;22231;-75
2023/12/10 06:42:35;;;;;;;84.90;69.30;;;;;;;-1.48;100.00;96986.17;109540;1290;22110;-75
2023/12/10 06:45:05;;;;;;;76.30;68.10;;;;;;;-1.52;100.00;96993.19;109564;1284;23092;-75
2023/12/10 06:47:33;;;;;;;70.70;63.30;;;;;;;-1.54;100.00;96993.33;109578;1279;22263;-75
2023/12/10 06:50:03;;;;;;;67.60;60.40;;;;;;;-1.54;100.00;96995.75;109552;1290;22219;-75
2023/12/10 06:52:31;;;;;;;61.30;55.30;;;;;;;-1.48;100.00;96999.45;109556;1290;22138;-76
2023/12/10 06:54:59;;;;;;;64.20;57.80;;;;;;;-1.48;100.00;96997.38;109575;1270;22274;-76
2023/12/10 06:57:28;;;;;;;70.70;63.60;;;;;;;-1.41;100.00;97004.29;109586;1290;22315;-75
2023/12/10 06:59:56;;;;;;;67.30;60.60;;;;;;;-1.37;100.00;97016.23;109538;1286;22236;-75
2023/12/10 07:02:24;;;;;;;65.50;58.80;;;;;;;-1.39;100.00;97027.31;109580;1290;22330;-76
2023/12/10 07:04:53;;;;;;;66.90;60.30;;;;;;;-1.42;100.00;97027.70;109560;1286;22211;-76
2023/12/10 07:07:21;;;;;;;74.40;66.80;;;;;;;-1.42;100.00;97032.29;109565;1290;22385;-75
2023/12/10 07:09:49;;;;;;;221.90;145.90;;;;;;;-1.43;100.00;97034.55;109563;1283;23011;-76
2023/12/10 07:12:17;;;;;;;168.50;113.20;;;;;;;-1.40;100.00;97033.27;109555;1290;23864;-76
2023/12/10 07:14:45;;;;;;;96.50;78.50;;;;;;;-1.31;100.00;97033.02;109553;1290;22235;-75
2023/12/10 07:17:14;;;;;;;81.10;73.00;;;;;;;-1.21;100.00;97035.96;109558;1290;22208;-75
2023/12/10 07:19:43;;;;;;;83.70;75.40;;;;;;;-1.14;100.00;97041.45;109549;1288;22225;-75
2023/12/10 07:22:11;;;;;;;76.70;69.30;;;;;;;-1.10;100.00;97046.46;109542;1290;22956;-75
2023/12/10 07:24:39;;;;;;;72.70;65.70;;;;;;;-1.09;100.00;97052.30;109563;1276;22923;-75
2023/12/10 07:27:07;;;;;;;69.10;62.40;;;;;;;-1.11;100.00;97055.48;109579;1289;22242;-76
2023/12/10 07:29:35;;;;;;;67.60;60.80;;;;;;;-1.05;100.00;97058.02;109585;1279;22248;-76
2023/12/10 07:32:03;;;;;;;64.60;58.40;;;;;;;-0.93;100.00;97056.35;109565;1289;22304;-75
2023/12/10 07:34:31;;;;;;;69.10;62.30;;;;;;;-0.80;100.00;97055.83;109568;1274;22356;-76
2023/12/10 07:37:00;;;;;;;69.00;62.10;;;;;;;-0.71;100.00;97058.80;109574;1283;22239;-76
2023/12/10 07:39:28;;;;;;;74.00;66.40;;;;;;;-0.63;100.00;97063.45;109562;1283;22243;-75
2023/12/10 07:41:58;;;;;;;71.70;65.10;;;;;;;-0.57;100.00;97068.52;109551;1286;22285;-76
2023/12/10 07:44:27;;;;;;;74.20;67.20;;;;;;;-0.52;100.00;97067.05;109534;1287;22370;-76
2023/12/10 07:46:56;;;;;;;74.80;67.30;;;;;;;-0.47;100.00;97074.00;109595;1283;22231;-75
2023/12/10 07:49:24;;;;;;;51.40;46.30;;;;;;;-0.38;100.00;97076.63;109578;1283;22229;-76
2023/12/10 07:51:52;;;;;;;63.00;56.70;;;;;;;-0.25;100.00;97081.58;109585;1283;22148;-75
2023/12/10 07:54:21;;;;;;;70.80;64.00;;;;;;;-0.14;100.00;97087.85;109586;1290;22931;-75
2023/12/10 07:56:49;;;;;;;73.00;65.70;;;;;;;-0.03;100.00;97091.66;109577;1276;22199;-75
2023/12/10 07:59:19;;;;;;;85.20;77.40;;;;;;;0.05;100.00;97092.95;109587;1276;22227;-75
2023/12/10 08:01:48;;;;;;;87.60;78.90;;;;;;;0.08;100.00;97093.98;109573;1286;22689;-76
2023/12/10 08:04:16;;;;;;;84.80;76.30;;;;;;;0.10;100.00;97098.56;109580;1276;22189;-75
2023/12/10 08:06:45;;;;;;;76.80;69.60;;;;;;;0.16;100.00;97104.34;109582;1267;22212;-76
2023/12/10 08:09:13;;;;;;;64.00;57.90;;;;;;;0.23;100.00;97101.22;109593;1283;22253;-75
2023/12/10 08:11:41;;;;;;;64.20;58.40;;;;;;;0.34;100.00;97100.80;109528;1286;22321;-75
2023/12/10 08:14:09;;;;;;;59.50;54.10;;;;;;;0.43;100.00;97104.01;109419;1288;22155;-75
2023/12/10 08:16:37;;;;;;;54.60;49.70;;;;;;;0.52;100.00;97111.57;109582;1286;22918;-75
2023/12/10 08:19:05;;;;;;;51.90;47.10;;;;;;;0.55;100.00;97111.23;109584;1290;22210;-76
2023/12/10 08:21:34;;;;;;;52.60;47.70;;;;;;;0.55;100.00;97114.10;109578;1287;22239;-76
2023/12/10 08:24:02;;;;;;;58.00;52.60;;;;;;;0.50;100.00;97114.33;109562;1275;22234;-76
2023/12/10 08:26:30;;;;;;;54.80;49.70;;;;;;;0.53;100.00;97119.45;109562;1286;22121;-75
2023/12/10 08:28:58;;;;;;;60.20;54.70;;;;;;;0.51;100.00;97117.09;109565;1283;23123;-76
2023/12/10 08:31:26;;;;;;;61.60;55.90;;;;;;;0.49;100.00;97118.08;109558;1290;22267;-76
2023/12/10 08:33:54;;;;;;;157.90;93.60;;;;;;;0.53;100.00;97123.93;109587;1286;22327;-75
2023/12/10 08:36:22;;;;;;;176.00;103.90;;;;;;;0.55;100.00;97120.20;109566;1283;22193;-75
2023/12/10 08:38:50;;;;;;;147.90;93.50;;;;;;;0.64;100.00;97124.78;109561;1290;23091;-75
2023/12/10 08:41:18;;;;;;;148.90;94.30;;;;;;;0.75;100.00;97129.05;109569;1290;22209;-76
2023/12/10 08:43:46;;;;;;;101.40;85.70;;;;;;;0.78;100.00;97133.52;109567;1283;22139;-75
2023/12/10 08:46:14;;;;;;;92.80;83.20;;;;;;;0.76;100.00;97133.83;109564;1276;22312;-75
2023/12/10 08:48:42;;;;;;;86.00;78.10;;;;;;;0.75;100.00;97134.29;109588;1286;22750;-76
2023/12/10 08:51:10;;;;;;;84.70;77.00;;;;;;;0.70;100.00;97132.78;109582;1287;22231;-74
2023/12/10 08:53:38;;;;;;;75.10;68.10;;;;;;;0.70;100.00;97131.08;109569;1276;22165;-74
2023/12/10 08:56:07;;;;;;;72.80;66.10;;;;;;;0.74;100.00;97131.86;109545;1275;22179;-74
2023/12/10 08:58:35;;;;;;;72.40;65.80;;;;;;;0.82;100.00;97131.27;109542;1290;22318;-75
2023/12/10 09:01:05;;;;;;;77.60;70.30;;;;;;;0.84;100.00;97131.23;109569;1290;22216;-75
2023/12/10 09:03:33;;;;;;;77.40;70.10;;;;;;;0.79;100.00;97132.52;109423;1276;22235;-74
2023/12/10 09:06:02;;;;;;;78.90;71.00;;;;;;;0.80;100.00;97132.80;109562;1279;22218;-74
2023/12/10 09:08:30;;;;;;;76.20;68.30;;;;;;;0.84;100.00;97130.44;109564;1278;22304;-75
2023/12/10 09:11:03;;;;;;;72.80;65.30;;;;;;;0.83;100.00;97128.11;109580;1276;22187;-75
2023/12/10 09:13:33;;;;;;;76.10;68.60;;;;;;;0.85;100.00;97131.09;109567;1284;22330;-75
2023/12/10 09:16:01;;;;;;;76.20;68.80;;;;;;;0.88;100.00;97140.66;109566;1275;22213;-75
2023/12/10 09:18:29;;;;;;;70.80;63.90;;;;;;;0.92;100.00;97140.20;109579;1290;22229;-75
2023/12/10 09:20:58;;;;;;;66.50;60.30;;;;;;;0.92;100.00;97141.48;109591;1290;22436;-74
2023/12/10 09:23:26;;;;;;;69.40;63.10;;;;;;;0.93;100.00;97144.98;109562;1276;22293;-74
2023/12/10 09:25:54;;;;;;;74.40;67.50;;;;;;;0.91;100.00;97144.86;109588;1282;22199;-75
2023/12/10 09:28:22;;;;;;;69.50;63.10;;;;;;;0.96;100.00;97145.95;109572;1290;22263;-75
2023/12/10 09:30:50;;;;;;;68.10;61.40;;;;;;;0.96;100.00;97143.46;109579;1274;22292;-75
2023/12/10 09:33:18;;;;;;;64.70;58.80;;;;;;;1.00;100.00;97144.72;109581;1287;22255;-74
2023/12/10 09:35:47;;;;;;;61.70;56.00;;;;;;;0.99;100.00;97138.30;109581;1286;22247;-75
2023/12/10 09:38:15;;;;;;;63.20;57.40;;;;;;;0.99;100.00;97136.42;109582;1279;22831;-75
2023/12/10 09:40:43;;;;;;;61.70;56.20;;;;;;;0.95;100.00;97137.62;109586;1283;22241;-76
2023/12/10 09:43:11;;;;;;;64.50;58.60;;;;;;;0.92;100.00;97137.34;109509;1290;22203;-76
2023/12/10 09:45:39;;;;;;;62.70;57.00;;;;;;;0.87;100.00;97134.77;109595;1282;22166;-76
2023/12/10 09:48:07;;;;;;;61.50;56.00;;;;;;;0.81;100.00;97129.95;109590;1274;22182;-76
2023/12/10 09:50:40;;;;;;;65.10;59.50;;;;;;;0.84;100.00;97123.64;109583;1279;22817;-76
2023/12/10 09:53:08;;;;;;;59.80;54.20;;;;;;;0.86;100.00;97124.52;109590;1290;23181;-75
2023/12/10 09:55:36;;;;;;;58.30;52.90;;;;;;;0.95;100.00;97127.96;109546;1276;23072;-75
2023/12/10 09:58:04;;;;;;;58.90;53.50;;;;;;;1.03;100.00;97123.20;109586;1282;22351;-75
2023/12/10 10:00:32;;;;;;;58.80;53.40;;;;;;;1.12;100.00;97123.98;109590;1283;22334;-75
2023/12/10 10:03:02;;;;;;;61.10;55.90;;;;;;;1.14;100.00;97122.52;109587;1289;22232;-75
2023/12/10 10:05:33;;;;;;;60.90;55.50;;;;;;;1.12;100.00;97127.11;109571;1286;22409;-75
2023/12/10 10:08:01;;;;;;;60.50;55.10;;;;;;;1.12;100.00;97130.73;109587;1290;22331;-75
2023/12/10 10:10:29;;;;;;;58.80;53.50;;;;;;;1.11;100.00;97131.89;109583;1279;22218;-76
2023/12/10 10:12:59;;;;;;;64.60;58.30;;;;;;;1.13;100.00;97131.20;109592;1290;22191;-75
2023/12/10 10:15:29;;;;;;;71.50;64.30;;;;;;;1.13;100.00;97135.56;109582;1283;23219;-75
2023/12/10 10:17:58;;;;;;;64.20;58.10;;;;;;;1.10;100.00;97138.25;109586;1290;22219;-76
2023/12/10 10:20:26;;;;;;;58.90;53.40;;;;;;;1.10;100.00;97135.28;109609;1274;22281;-76
2023/12/10 10:22:54;;;;;;;55.60;50.50;;;;;;;1.02;100.00;97140.11;109589;1286;22222;-76
2023/12/10 10:25:24;;;;;;;55.60;50.40;;;;;;;0.97;100.00;97133.55;109585;1276;22348;-75
2023/12/10 10:27:52;;;;;;;55.80;50.60;;;;;;;0.95;100.00;97136.08;109572;1274;23106;-76
2023/12/10 10:30:20;;;;;;;57.90;52.60;;;;;;;0.92;100.00;97136.54;109591;1276;22216;-75
2023/12/10 10:32:49;;;;;;;52.90;47.90;;;;;;;0.95;100.00;97138.48;109599;1282;22892;-75
2023/12/10 10:35:17;;;;;;;49.80;45.10;;;;;;;0.99;100.00;97144.44;109556;1286;22285;-75
2023/12/10 10:37:46;;;;;;;51.90;47.20;;;;;;;1.04;100.00;97144.64;109567;1283;22241;-75
2023/12/10 10:40:14;;;;;;;55.50;50.30;;;;;;;1.07;100.00;97145.98;109558;1290;22367;-75
2023/12/10 10:42:44;;;;;;;60.60;55.20;;;;;;;1.05;100.00;97146.81;109573;1286;22242;-76
2023/12/10 10:45:12;;;;;;;61.50;55.90;;;;;;;1.04;100.00;97143.89;109564;1284;22295;-73
2023/12/10 10:47:40;;;;;;;57.50;51.60;;;;;;;1.05;100.00;97146.80;109587;1290;22178;-74
2023/12/10 10:50:09;;;;;;;63.10;57.00;;;;;;;1.05;100.00;97146.91;109604;1283;22848;-74
2023/12/10 10:52:55;;;;;;;60.00;53.90;;;;;;;1.09;100.00;97141.22;109588;1286;23015;-74
2023/12/10 10:55:24;;;;;;;65.40;59.40;;;;;;;1.14;100.00;97140.60;109584;1282;22308;-74
2023/12/10 10:57:53;;;;;;;69.20;63.80;;;;;;;1.18;100.00;97142.86;109583;1282;22218;-75
2023/12/10 11:00:22;;;;;;;70.70;64.00;;;;;;;1.20;100.00;97144.98;109581;1290;22236;-73
2023/12/10 11:02:54;;;;;;;66.60;60.00;;;;;;;1.23;100.00;97145.59;109574;1274;23070;-74
2023/12/10 11:05:35;;;;;;;72.80;66.00;;;;;;;1.24;100.00;97148.84;109562;1290;23148;-74
2023/12/10 11:08:04;;;;;;;71.10;64.20;;;;;;;1.21;100.00;97151.48;109587;1290;22226;-75
2023/12/10 11:10:34;;;;;;;72.50;65.00;;;;;;;1.25;100.00;97149.58;109583;1290;22289;-75